Time;durP1;ratioP1;P1;durP2;ratioP2;P2;SDS_P1;SDS_P2;PMS_P1;PMS_P2;Temp;Humidity;BMP_temperature;BMP_pressure;BME280_temperature;BME280_humidity;BME280_pressure;Samples;Min_cycle;Max_cycle;Signal;HPM_P1;HPM_P2
2024/04/07 00:00:22;;;;;;;4.20;2.70;;;18.00;96.00;;;;;;5062355;28;20044;-67
2024/04/07 00:03:08;;;;;;;4.65;3.08;;;18.10;96.10;;;;;;5068304;28;20157;-67
2024/04/07 00:05:54;;;;;;;4.38;2.85;;;18.00;96.10;;;;;;5062924;28;20044;-67
2024/04/07 00:08:39;;;;;;;6.57;2.85;;;18.00;96.20;;;;;;5072136;28;20400;-67
2024/04/07 00:11:26;;;;;;;4.75;3.55;;;17.90;96.20;;;;;;5072780;28;20123;-67
2024/04/07 00:14:12;;;;;;;5.53;3.05;;;17.90;96.30;;;;;;5070352;28;20040;-66
2024/04/07 00:16:58;;;;;;;4.50;3.55;;;17.90;96.30;;;;;;5064669;28;20040;-66
2024/04/07 00:19:46;;;;;;;3.88;2.97;;;17.90;96.40;;;;;;5071188;28;20087;-67
2024/04/07 00:22:32;;;;;;;5.28;3.20;;;17.90;96.40;;;;;;5068375;28;20024;-66
2024/04/07 00:25:18;;;;;;;7.97;3.38;;;17.80;96.50;;;;;;5068355;28;20029;-67
2024/04/07 00:28:06;;;;;;;4.75;3.20;;;17.80;96.50;;;;;;5055628;28;20033;-67
2024/04/07 00:30:52;;;;;;;6.00;3.47;;;17.70;96.60;;;;;;5052686;28;20458;-67
2024/04/07 00:33:38;;;;;;;6.40;3.72;;;17.70;96.60;;;;;;5053433;28;20067;-67
2024/04/07 00:36:25;;;;;;;5.30;3.70;;;17.70;96.60;;;;;;5064097;28;20119;-67
2024/04/07 00:39:12;;;;;;;11.93;3.75;;;17.70;96.70;;;;;;5064437;28;20454;-66
2024/04/07 00:41:58;;;;;;;5.28;4.00;;;17.60;96.70;;;;;;5070279;28;20427;-66
2024/04/07 00:44:45;;;;;;;6.43;3.55;;;17.60;96.80;;;;;;5069439;28;20086;-66
2024/04/07 00:47:31;;;;;;;7.93;4.13;;;17.50;96.80;;;;;;5067372;28;20115;-67
2024/04/07 00:50:19;;;;;;;5.10;3.53;;;17.50;96.90;;;;;;5058246;28;20112;-67
2024/04/07 00:53:05;;;;;;;10.43;4.05;;;17.50;96.90;;;;;;5069862;28;20051;-67
2024/04/07 00:55:51;;;;;;;4.78;3.50;;;17.50;96.90;;;;;;5055703;28;20076;-67
2024/04/07 00:58:37;;;;;;;5.05;3.28;;;17.50;97.20;;;;;;5062576;28;20032;-68
2024/04/07 01:01:23;;;;;;;4.25;3.40;;;17.40;97.00;;;;;;5058113;28;20032;-67
2024/04/07 01:04:09;;;;;;;6.05;3.83;;;17.40;97.00;;;;;;5054025;28;20028;-67
2024/04/07 01:06:55;;;;;;;5.95;4.00;;;17.30;97.10;;;;;;5058684;28;20039;-68
2024/04/07 01:09:42;;;;;;;6.40;4.03;;;17.30;97.10;;;;;;5064461;28;20036;-68
2024/04/07 01:12:28;;;;;;;4.70;3.67;;;17.30;97.30;;;;;;5062532;28;20024;-68
2024/04/07 01:15:14;;;;;;;5.03;3.60;;;17.30;97.30;;;;;;5068840;28;20040;-68
2024/04/07 01:17:59;;;;;;;5.90;3.80;;;17.20;97.20;;;;;;5068893;28;20090;-68
2024/04/07 01:20:46;;;;;;;8.40;4.40;;;17.20;97.30;;;;;;5062849;28;20530;-68
2024/04/07 01:23:31;;;;;;;6.60;3.67;;;17.20;97.40;;;;;;5064814;28;20035;-68
2024/04/07 01:26:17;;;;;;;6.60;3.17;;;17.10;97.40;;;;;;5067558;28;20035;-68
2024/04/07 01:29:03;;;;;;;6.43;4.15;;;17.10;97.50;;;;;;5064799;28;20104;-67
2024/04/07 01:31:49;;;;;;;5.35;3.60;;;17.10;97.50;;;;;;5057512;28;20115;-68
2024/04/07 01:34:35;;;;;;;5.45;3.97;;;17.10;97.50;;;;;;5067910;28;20032;-67
2024/04/07 01:37:21;;;;;;;5.63;3.35;;;17.10;97.50;;;;;;5060447;28;20032;-69
2024/04/07 01:40:11;;;;;;;5.78;3.72;;;17.10;97.60;;;;;;5059190;28;20078;-69
2024/04/07 01:42:57;;;;;;;7.00;3.80;;;17.10;97.60;;;;;;5052520;28;20029;-70
2024/04/07 01:45:42;;;;;;;6.00;3.30;;;17.00;97.70;;;;;;5054073;28;20123;-70
2024/04/07 01:48:28;;;;;;;5.95;3.90;;;17.00;97.70;;;;;;5066212;28;20047;-69
2024/04/07 01:51:14;;;;;;;5.35;3.53;;;17.00;97.80;;;;;;5068725;28;20040;-69
2024/04/07 01:54:00;;;;;;;5.70;3.88;;;17.00;97.90;;;;;;5067303;28;20450;-69
2024/04/07 01:56:46;;;;;;;5.43;3.47;;;17.00;97.80;;;;;;5061272;28;20439;-70
2024/04/07 01:59:32;;;;;;;4.63;3.22;;;17.00;97.90;;;;;;5056389;28;20048;-69
2024/04/07 02:02:19;;;;;;;6.03;3.58;;;16.90;98.00;;;;;;5066486;28;20044;-70
2024/04/07 02:05:05;;;;;;;7.50;3.80;;;17.00;97.90;;;;;;5068015;28;20043;-69
2024/04/07 02:07:51;;;;;;;4.38;3.20;;;16.90;97.90;;;;;;5064224;28;20033;-69
2024/04/07 02:10:37;;;;;;;5.75;3.55;;;16.90;98.00;;;;;;5071045;28;20036;-69
2024/04/07 02:13:23;;;;;;;5.55;3.17;;;16.90;98.00;;;;;;5066534;28;20504;-69
2024/04/07 02:16:10;;;;;;;8.55;3.40;;;16.90;98.00;;;;;;5051950;28;20047;-69
2024/04/07 02:18:56;;;;;;;6.30;3.40;;;16.90;98.10;;;;;;5060860;28;20412;-73
2024/04/07 02:21:42;;;;;;;7.15;3.58;;;16.80;98.10;;;;;;5062803;28;20464;-73
2024/04/07 02:24:28;;;;;;;4.63;2.85;;;16.80;98.10;;;;;;5059249;28;20113;-73
2024/04/07 02:27:14;;;;;;;5.55;3.83;;;16.80;98.10;;;;;;5069331;28;20120;-73
2024/04/07 02:30:00;;;;;;;6.32;3.35;;;16.80;98.10;;;;;;5068401;28;20435;-73
2024/04/07 02:32:47;;;;;;;6.32;3.60;;;16.70;98.10;;;;;;5057274;28;20548;-73
2024/04/07 02:35:33;;;;;;;5.78;3.90;;;16.70;98.10;;;;;;5067879;28;20047;-73
2024/04/07 02:38:19;;;;;;;4.55;3.10;;;16.70;98.10;;;;;;5059993;28;20029;-73
2024/04/07 02:41:05;;;;;;;4.55;3.38;;;16.70;98.10;;;;;;5060753;28;20037;-73
2024/04/07 02:43:51;;;;;;;4.80;3.28;;;16.70;98.20;;;;;;5069408;28;20056;-73
2024/04/07 02:49:41;;;;;;;5.78;4.13;;;16.60;98.10;;;;;;5062155;28;20029;-72
2024/04/07 02:52:27;;;;;;;4.47;3.17;;;16.70;98.10;;;;;;5057209;28;20036;-76
2024/04/07 02:55:13;;;;;;;5.93;3.50;;;16.60;98.20;;;;;;5070579;28;20028;-74
2024/04/07 02:57:59;;;;;;;5.18;3.35;;;16.60;98.20;;;;;;5058261;28;20037;-73
2024/04/07 03:00:45;;;;;;;4.35;3.15;;;16.60;98.10;;;;;;5064191;28;20041;-74
2024/04/07 03:03:32;;;;;;;5.38;3.28;;;16.60;98.10;;;;;;5067366;28;20119;-74
2024/04/07 03:06:19;;;;;;;5.75;3.60;;;16.60;98.10;;;;;;5058521;28;20126;-74
2024/04/07 03:09:05;;;;;;;4.72;3.50;;;16.60;98.10;;;;;;5051941;28;20037;-75
2024/04/07 03:11:51;;;;;;;5.72;3.60;;;16.60;98.00;;;;;;5052187;28;20124;-75
2024/04/07 03:14:38;;;;;;;6.35;4.28;;;16.60;98.10;;;;;;5054348;28;20032;-75
2024/04/07 03:17:24;;;;;;;5.78;3.70;;;16.60;98.10;;;;;;5050827;28;20033;-74
2024/04/07 03:20:10;;;;;;;5.75;3.40;;;16.60;98.10;;;;;;5064031;28;20502;-73
2024/04/07 03:22:56;;;;;;;5.20;3.00;;;16.60;98.00;;;;;;5062664;28;20397;-78
2024/04/07 03:25:42;;;;;;;5.72;3.20;;;16.60;98.00;;;;;;5064079;28;20043;-77
2024/04/07 03:28:28;;;;;;;5.63;3.88;;;16.50;98.00;;;;;;5055528;28;20035;-76
2024/04/07 03:31:14;;;;;;;6.10;3.45;;;16.50;98.00;;;;;;5050727;28;20037;-75
2024/04/07 03:34:00;;;;;;;8.02;3.30;;;16.50;97.90;;;;;;5060778;28;20029;-75
2024/04/07 03:36:46;;;;;;;6.03;3.15;;;16.50;97.90;;;;;;5063070;28;20393;-75
2024/04/07 03:39:32;;;;;;;5.63;3.67;;;16.60;97.90;;;;;;5068123;28;20059;-74
2024/04/07 03:42:18;;;;;;;5.32;3.67;;;16.50;97.90;;;;;;5059417;28;20116;-74
2024/04/07 03:45:09;;;;;;;6.93;3.72;;;16.50;97.80;;;;;;5067308;28;20055;-75
2024/04/07 03:47:55;;;;;;;5.13;3.45;;;16.50;97.80;;;;;;5068316;28;20561;-73
2024/04/07 03:50:41;;;;;;;3.97;3.08;;;16.50;97.80;;;;;;5058755;28;20041;-75
2024/04/07 03:53:28;;;;;;;5.07;3.22;;;16.50;97.80;;;;;;5064879;28;20037;-74
2024/04/07 03:56:14;;;;;;;6.75;3.10;;;16.50;97.70;;;;;;5071248;28;20476;-74
2024/04/07 03:59:00;;;;;;;3.95;3.00;;;16.50;97.70;;;;;;5071848;28;20044;-74
2024/04/07 04:01:47;;;;;;;4.45;3.28;;;16.50;97.70;;;;;;5061324;28;20163;-74
2024/04/07 04:04:33;;;;;;;4.53;3.53;;;16.50;97.70;;;;;;5059529;28;20476;-75
2024/04/07 04:07:19;;;;;;;5.45;3.28;;;16.40;97.60;;;;;;5064956;28;20059;-74
2024/04/07 04:10:07;;;;;;;5.47;3.30;;;16.40;97.60;;;;;;5063533;28;20036;-75
2024/04/07 04:12:53;;;;;;;6.88;3.67;;;16.40;97.60;;;;;;5070310;28;20472;-76
2024/04/07 04:15:38;;;;;;;5.80;3.13;;;16.40;97.50;;;;;;5052968;28;20123;-77
2024/04/07 04:18:24;;;;;;;6.07;3.17;;;16.40;97.60;;;;;;5056264;28;20120;-77
2024/04/07 04:21:11;;;;;;;4.80;3.15;;;16.30;97.70;;;;;;5055215;28;20040;-76
2024/04/07 04:23:57;;;;;;;5.30;3.58;;;16.30;97.60;;;;;;5066009;28;20033;-76
2024/04/07 04:26:42;;;;;;;6.68;3.42;;;16.30;97.50;;;;;;5064607;28;20036;-76
2024/04/07 04:29:33;;;;;;;5.30;2.97;;;16.30;97.40;;;;;;5056611;28;20119;-76
2024/04/07 04:32:20;;;;;;;5.35;3.22;;;16.30;97.40;;;;;;5066727;28;20066;-76
2024/04/07 04:35:07;;;;;;;5.15;3.50;;;16.20;97.50;;;;;;5064531;28;20476;-76
2024/04/07 04:37:53;;;;;;;5.82;3.72;;;16.20;97.40;;;;;;5062968;28;20116;-76
2024/04/07 04:40:39;;;;;;;6.32;3.15;;;16.20;97.40;;;;;;5058973;28;20040;-76
2024/04/07 04:43:25;;;;;;;5.45;3.20;;;16.20;97.40;;;;;;5071041;28;20064;-76
2024/04/07 04:46:13;;;;;;;5.68;3.33;;;16.20;97.30;;;;;;5062200;28;20491;-76
2024/04/07 04:48:59;;;;;;;4.93;3.30;;;16.20;97.30;;;;;;5061836;28;20043;-74
2024/04/07 04:51:46;;;;;;;4.30;2.88;;;16.20;97.30;;;;;;5061604;28;20029;-75
2024/04/07 04:54:32;;;;;;;6.50;3.55;;;16.20;97.20;;;;;;5054699;28;20458;-75
2024/04/07 04:57:18;;;;;;;5.07;3.53;;;16.20;97.20;;;;;;5066915;28;20043;-75
2024/04/07 05:00:05;;;;;;;5.63;3.47;;;16.20;97.10;;;;;;5066022;28;20052;-74
2024/04/07 05:02:51;;;;;;;5.78;3.40;;;16.20;97.10;;;;;;5071072;28;20485;-75
2024/04/07 05:05:38;;;;;;;4.45;2.88;;;16.20;97.10;;;;;;5058097;28;20033;-75
2024/04/07 05:08:24;;;;;;;4.50;3.53;;;16.20;97.00;;;;;;5052929;28;20140;-76
2024/04/07 05:11:10;;;;;;;4.97;3.15;;;16.30;96.90;;;;;;5055170;28;20416;-76
2024/04/07 05:13:56;;;;;;;4.13;3.17;;;16.20;96.80;;;;;;5064835;28;20444;-75
2024/04/07 05:16:42;;;;;;;3.53;2.97;;;16.20;96.70;;;;;;5056157;28;20048;-74
2024/04/07 05:19:28;;;;;;;5.10;3.20;;;16.20;96.70;;;;;;5054024;28;20144;-75
2024/04/07 05:22:14;;;;;;;4.47;3.17;;;16.30;96.70;;;;;;5052250;28;20029;-75
2024/04/07 05:25:00;;;;;;;4.57;3.25;;;16.30;96.70;;;;;;5060088;28;20127;-75
2024/04/07 05:27:45;;;;;;;3.53;2.53;;;16.30;96.60;;;;;;5070979;28;20031;-76
2024/04/07 05:30:31;;;;;;;3.42;2.60;;;16.30;96.60;;;;;;5068928;28;20032;-75
2024/04/07 05:33:17;;;;;;;4.28;3.03;;;16.30;96.60;;;;;;5057680;28;20049;-76
2024/04/07 05:36:05;;;;;;;5.05;2.75;;;16.30;96.60;;;;;;5056983;28;20508;-75
2024/04/07 05:38:51;;;;;;;4.38;3.15;;;16.30;96.40;;;;;;5057300;28;20142;-71
2024/04/07 05:41:37;;;;;;;5.03;2.92;;;16.40;96.50;;;;;;5056519;28;20024;-77
2024/04/07 05:44:23;;;;;;;4.88;3.10;;;16.40;96.40;;;;;;5065570;28;20039;-76
2024/04/07 05:47:09;;;;;;;5.63;3.25;;;16.40;96.30;;;;;;5065201;28;20035;-53
2024/04/07 05:49:55;;;;;;;5.55;2.67;;;16.50;96.20;;;;;;5064265;28;20021;-75
2024/04/07 05:52:42;;;;;;;7.00;2.92;;;16.60;96.20;;;;;;5049816;28;20039;-69
2024/04/07 05:55:28;;;;;;;4.40;2.75;;;16.60;96.00;;;;;;5066200;28;20525;-69
2024/04/07 05:58:15;;;;;;;3.90;2.63;;;16.70;95.90;;;;;;5049625;28;20033;-68
2024/04/07 06:01:01;;;;;;;5.32;2.90;;;16.80;95.90;;;;;;5061819;28;20044;-68
2024/04/07 06:03:47;;;;;;;3.83;2.70;;;16.80;95.70;;;;;;5066070;28;20477;-68
2024/04/07 06:06:34;;;;;;;6.35;3.00;;;16.90;95.70;;;;;;5066400;28;20024;-68
2024/04/07 06:09:20;;;;;;;7.55;3.08;;;17.00;95.70;;;;;;5066126;28;20476;-69
2024/04/07 06:12:06;;;;;;;4.05;2.90;;;17.10;95.50;;;;;;5066853;28;20025;-68
2024/04/07 06:14:52;;;;;;;4.82;2.50;;;17.20;95.30;;;;;;5050400;28;20043;-68
2024/04/07 06:17:38;;;;;;;4.05;2.53;;;17.30;95.20;;;;;;5069106;28;20052;-68
2024/04/07 06:20:24;;;;;;;5.13;2.63;;;17.40;95.10;;;;;;5058142;28;20135;-71
2024/04/07 06:23:10;;;;;;;5.20;2.92;;;17.50;95.00;;;;;;5064291;28;20041;-70
2024/04/07 06:25:56;;;;;;;3.53;2.50;;;17.60;94.90;;;;;;5054482;28;20032;-73
2024/04/07 06:28:43;;;;;;;4.53;2.70;;;17.80;94.80;;;;;;5057967;28;20037;-73
2024/04/07 06:31:29;;;;;;;5.43;3.10;;;17.90;94.70;;;;;;5051318;28;20140;-74
2024/04/07 06:34:15;;;;;;;4.30;2.60;;;18.00;94.60;;;;;;5052493;28;20063;-74
2024/04/07 06:37:01;;;;;;;6.45;2.80;;;18.10;94.40;;;;;;5057922;28;20091;-74
2024/04/07 06:39:47;;;;;;;6.82;2.70;;;18.20;94.40;;;;;;5069054;28;20080;-74
2024/04/07 06:42:33;;;;;;;3.72;2.42;;;18.30;94.20;;;;;;5059646;28;20029;-75
2024/04/07 06:45:19;;;;;;;4.85;2.80;;;18.40;93.90;;;;;;5069111;28;20086;-73
2024/04/07 06:48:05;;;;;;;4.80;2.35;;;18.60;93.90;;;;;;5052462;28;20032;-74
2024/04/07 06:50:51;;;;;;;3.95;2.15;;;18.70;93.80;;;;;;5067699;28;20071;-74
2024/04/07 06:53:37;;;;;;;2.92;2.10;;;18.80;93.70;;;;;;5065523;28;20028;-73
2024/04/07 06:56:23;;;;;;;9.52;2.70;;;18.90;93.60;;;;;;5057623;28;20112;-73
2024/04/07 06:59:09;;;;;;;7.18;2.45;;;19.00;93.30;;;;;;5054483;28;20040;-73
2024/04/07 07:01:55;;;;;;;4.78;2.75;;;19.10;93.00;;;;;;5059183;28;20025;-74
2024/04/07 07:04:41;;;;;;;3.67;2.25;;;19.20;92.80;;;;;;5052566;28;20116;-74
2024/04/07 07:07:27;;;;;;;4.30;2.88;;;19.30;92.90;;;;;;5067674;28;20476;-73
2024/04/07 07:10:13;;;;;;;4.40;2.83;;;19.50;92.70;;;;;;5060411;28;20546;-73
2024/04/07 07:12:59;;;;;;;6.72;3.58;;;19.60;92.50;;;;;;5062982;28;20033;-73
2024/04/07 07:15:45;;;;;;;4.47;2.33;;;19.70;92.40;;;;;;5063899;28;20040;-73
2024/04/07 07:18:31;;;;;;;5.10;2.80;;;19.80;92.20;;;;;;5072296;28;20551;-73
2024/04/07 07:21:17;;;;;;;3.17;2.13;;;19.90;92.00;;;;;;5063785;28;20044;-74
2024/04/07 07:24:03;;;;;;;9.75;2.63;;;20.10;91.90;;;;;;5060259;28;20031;-74
2024/04/07 07:26:49;;;;;;;5.60;2.38;;;20.20;91.80;;;;;;5057412;28;20048;-73
2024/04/07 07:29:35;;;;;;;4.47;2.30;;;20.30;91.50;;;;;;5070780;28;20036;-74
2024/04/07 07:32:21;;;;;;;3.67;2.17;;;20.40;91.20;;;;;;5070666;28;20471;-73
2024/04/07 07:35:07;;;;;;;3.33;2.03;;;20.50;91.10;;;;;;5055067;28;20032;-74
2024/04/07 07:37:53;;;;;;;3.00;1.92;;;20.60;90.80;;;;;;5064243;28;20116;-73
2024/04/07 07:40:40;;;;;;;3.90;2.10;;;20.70;90.60;;;;;;5056634;28;20044;-73
2024/04/07 07:43:26;;;;;;;4.35;2.20;;;20.90;90.70;;;;;;5070237;28;20036;-73
2024/04/07 07:46:12;;;;;;;5.90;2.17;;;20.90;90.60;;;;;;5068666;28;20119;-74
2024/04/07 07:48:58;;;;;;;4.15;2.10;;;21.10;90.40;;;;;;5053543;28;20124;-74
2024/04/07 07:51:44;;;;;;;2.95;1.67;;;21.20;90.20;;;;;;5055918;28;20033;-74
2024/04/07 07:54:30;;;;;;;5.28;2.00;;;21.30;90.00;;;;;;5062259;28;20484;-73
2024/04/07 07:57:16;;;;;;;5.65;2.03;;;21.40;89.50;;;;;;5065400;28;20476;-74
2024/04/07 08:00:04;;;;;;;3.42;2.03;;;21.50;89.20;;;;;;5058526;28;20041;-73
2024/04/07 08:02:52;;;;;;;3.83;2.08;;;21.60;88.90;;;;;;5056035;28;20029;-73
2024/04/07 08:05:38;;;;;;;5.45;2.38;;;21.70;88.20;;;;;;5058099;28;20037;-73
2024/04/07 08:08:24;;;;;;;6.75;2.15;;;21.80;87.70;;;;;;5065976;28;20028;-73
2024/04/07 08:11:10;;;;;;;2.92;1.92;;;21.90;87.30;;;;;;5063661;28;20036;-73
2024/04/07 08:13:56;;;;;;;2.58;1.80;;;21.90;87.30;;;;;;5058543;28;20032;-73
2024/04/07 08:16:43;;;;;;;1.88;1.63;;;22.00;86.70;;;;;;5067418;28;20404;-73
2024/04/07 08:19:29;;;;;;;3.80;1.90;;;22.10;86.10;;;;;;5065124;28;20543;-74
2024/04/07 08:22:15;;;;;;;5.63;1.83;;;22.20;85.90;;;;;;5066343;28;20113;-73
2024/04/07 08:25:01;;;;;;;2.90;1.88;;;22.20;85.80;;;;;;5067376;28;20036;-71
2024/04/07 08:27:47;;;;;;;4.50;1.70;;;22.30;86.20;;;;;;5060248;28;20033;-73
2024/04/07 08:30:33;;;;;;;3.17;1.65;;;22.40;85.70;;;;;;5070551;28;20484;-75
2024/04/07 08:33:19;;;;;;;5.70;2.15;;;22.50;85.40;;;;;;5070544;28;20043;-77
2024/04/07 08:36:05;;;;;;;3.38;1.60;;;22.60;84.50;;;;;;5066424;28;20036;-75
2024/04/07 08:38:51;;;;;;;2.42;1.85;;;22.70;84.50;;;;;;5064331;28;20135;-73
2024/04/07 08:41:37;;;;;;;2.70;1.80;;;22.80;83.90;;;;;;5061567;28;20389;-73
2024/04/07 08:44:23;;;;;;;3.47;1.73;;;22.90;83.20;;;;;;5064493;28;20457;-74
2024/04/07 08:47:12;;;;;;;4.15;1.55;;;23.00;82.20;;;;;;5062245;28;20036;-74
2024/04/07 08:49:59;;;;;;;3.83;2.03;;;23.10;81.70;;;;;;5065654;28;20037;-73
2024/04/07 08:52:45;;;;;;;3.20;1.08;;;23.10;79.60;;;;;;5051027;28;20028;-73
2024/04/07 08:55:31;;;;;;;3.72;1.55;;;23.20;78.80;;;;;;5068479;28;20032;-72
2024/04/07 08:58:19;;;;;;;3.38;1.83;;;23.20;78.80;;;;;;5069575;28;20047;-72
2024/04/07 09:01:05;;;;;;;3.65;2.17;;;23.30;78.20;;;;;;5062007;28;20029;-72
2024/04/07 09:03:51;;;;;;;3.15;1.42;;;23.30;77.60;;;;;;5055121;28;20032;-71
2024/04/07 09:06:37;;;;;;;3.85;1.67;;;23.40;77.70;;;;;;5056446;28;20397;-72
2024/04/07 09:09:23;;;;;;;4.05;1.58;;;23.40;77.60;;;;;;5061245;28;20032;-72
2024/04/07 09:12:10;;;;;;;2.80;1.48;;;23.50;77.70;;;;;;5067626;28;20449;-72
2024/04/07 09:14:56;;;;;;;2.85;1.38;;;23.60;77.60;;;;;;5070962;28;20067;-72
2024/04/07 09:17:42;;;;;;;2.88;1.60;;;23.70;78.00;;;;;;5064276;28;20033;-78
2024/04/07 09:20:30;;;;;;;3.97;1.60;;;23.80;76.30;;;;;;5058723;28;20062;-75
2024/04/07 09:23:16;;;;;;;8.40;3.63;;;23.90;76.10;;;;;;5053814;28;20033;-72
2024/04/07 09:26:03;;;;;;;3.95;2.00;;;23.90;75.00;;;;;;5066858;28;20036;-71
2024/04/07 09:28:49;;;;;;;5.75;2.08;;;24.00;74.90;;;;;;5050150;28;20124;-71
2024/04/07 09:31:35;;;;;;;3.28;1.48;;;24.10;75.40;;;;;;5058627;28;20025;-70
2024/04/07 09:34:22;;;;;;;2.40;1.50;;;24.20;74.60;;;;;;5053458;28;20037;-71
2024/04/07 09:37:08;;;;;;;3.50;1.85;;;24.20;74.90;;;;;;5052076;28;20382;-72
2024/04/07 09:39:54;;;;;;;3.28;2.03;;;24.30;74.90;;;;;;5063838;28;20127;-71
2024/04/07 09:42:40;;;;;;;5.40;1.70;;;24.30;74.10;;;;;;5060586;28;20115;-70
2024/04/07 09:45:26;;;;;;;1.88;1.38;;;24.40;74.00;;;;;;5065683;28;20384;-70
2024/04/07 09:48:15;;;;;;;3.42;1.80;;;24.50;73.70;;;;;;5064582;28;20036;-70
2024/04/07 09:51:05;;;;;;;3.92;1.77;;;24.40;72.60;;;;;;5057235;28;20115;-71
2024/04/07 09:53:57;;;;;;;3.38;1.80;;;24.40;72.60;;;;;;5062751;28;20043;-72
2024/04/07 09:56:43;;;;;;;2.17;1.60;;;24.40;72.80;;;;;;5053307;28;20032;-73
2024/04/07 09:59:29;;;;;;;4.03;1.80;;;24.40;72.60;;;;;;5063302;28;20040;-73
2024/04/07 10:02:15;;;;;;;3.53;1.70;;;24.40;72.80;;;;;;5062361;28;20036;-73
2024/04/07 10:05:03;;;;;;;3.97;1.83;;;24.40;72.80;;;;;;5064463;28;20154;-73
2024/04/07 10:07:51;;;;;;;4.43;1.63;;;24.50;73.00;;;;;;5057406;28;20481;-72
2024/04/07 10:10:37;;;;;;;7.35;2.05;;;24.40;73.40;;;;;;5061245;28;20025;-73
2024/04/07 10:13:24;;;;;;;3.25;1.50;;;24.40;73.10;;;;;;5058663;28;20116;-72
2024/04/07 10:16:10;;;;;;;6.13;1.75;;;24.40;72.90;;;;;;5057830;28;20055;-74
2024/04/07 10:18:58;;;;;;;3.63;1.85;;;24.50;73.10;;;;;;5065481;28;20076;-74
2024/04/07 10:21:45;;;;;;;10.85;1.85;;;24.50;72.70;;;;;;5061406;28;20472;-74
2024/04/07 10:24:31;;;;;;;4.28;1.85;;;24.50;72.90;;;;;;5055213;28;20039;-76
2024/04/07 10:27:25;;;;;;;2.97;1.95;;;24.50;73.00;;;;;;5058081;28;20033;-79
2024/04/07 10:30:14;;;;;;;5.43;1.55;;;24.50;72.90;;;;;;5052731;28;20037;-73
2024/04/07 10:33:02;;;;;;;2.58;1.65;;;24.50;72.80;;;;;;5060724;28;20477;-73
2024/04/07 10:36:14;;;;;;;2.75;1.70;;;24.50;72.40;;;;;;5061218;28;20043;-72
2024/04/07 10:39:02;;;;;;;2.92;1.55;;;24.60;73.10;;;;;;5061917;28;20175;-72
2024/04/07 10:41:49;;;;;;;3.17;1.73;;;24.60;72.60;;;;;;5049611;28;20111;-74
2024/04/07 10:44:35;;;;;;;4.85;1.70;;;24.50;72.50;;;;;;5068100;28;20438;-71
2024/04/07 10:47:21;;;;;;;2.00;1.60;;;24.50;73.00;;;;;;5058964;28;20445;-70
2024/04/07 10:50:08;;;;;;;3.55;1.58;;;24.50;72.70;;;;;;5060353;28;20060;-71
2024/04/07 10:53:06;;;;;;;3.95;1.58;;;24.50;72.50;;;;;;5073461;28;20089;-71
2024/04/07 10:55:52;;;;;;;3.08;1.58;;;24.40;72.80;;;;;;5063941;28;20123;-71
2024/04/07 10:58:39;;;;;;;3.60;1.75;;;24.40;72.90;;;;;;5054614;28;20036;-75
2024/04/07 11:01:25;;;;;;;4.63;2.05;;;24.40;73.10;;;;;;5068757;28;20044;-71
2024/04/07 11:04:11;;;;;;;3.20;1.60;;;24.40;73.40;;;;;;5071828;28;20499;-70
2024/04/07 11:06:59;;;;;;;6.15;2.35;;;24.30;73.30;;;;;;5070825;28;20120;-71
2024/04/07 11:09:45;;;;;;;4.47;2.00;;;24.30;73.20;;;;;;5072827;28;20387;-71
2024/04/07 11:12:32;;;;;;;2.55;1.48;;;24.30;73.20;;;;;;5067913;28;20082;-71
2024/04/07 11:15:20;;;;;;;2.60;1.50;;;24.40;73.50;;;;;;5063885;28;20121;-71
2024/04/07 11:18:13;;;;;;;3.45;1.40;;;24.40;73.50;;;;;;5068669;28;20088;-72
2024/04/07 11:20:59;;;;;;;4.07;1.52;;;24.40;73.70;;;;;;5053415;28;20059;-71
2024/04/07 11:23:46;;;;;;;3.92;1.83;;;24.40;73.60;;;;;;5059600;28;20106;-71
2024/04/07 11:26:32;;;;;;;2.65;1.75;;;24.40;73.60;;;;;;5067942;28;20029;-71
2024/04/07 11:29:19;;;;;;;23.63;2.50;;;24.40;73.80;;;;;;5067583;28;20042;-71
2024/04/07 11:32:06;;;;;;;4.97;2.10;;;24.50;73.80;;;;;;5070735;28;20036;-70
2024/04/07 11:34:52;;;;;;;4.00;1.73;;;24.50;74.00;;;;;;5064514;28;20029;-71
2024/04/07 11:37:39;;;;;;;3.90;1.95;;;24.50;73.80;;;;;;5060620;28;20036;-71
2024/04/07 11:40:26;;;;;;;2.20;1.60;;;24.60;73.30;;;;;;5065487;28;20052;-71
2024/04/07 11:43:12;;;;;;;4.88;1.85;;;24.60;73.20;;;;;;5071815;28;20107;-72
2024/04/07 11:45:58;;;;;;;6.30;2.25;;;24.60;73.70;;;;;;5068815;28;20454;-72
2024/04/07 11:48:44;;;;;;;4.90;1.98;;;24.60;73.10;;;;;;5066247;28;20048;-73
2024/04/07 11:51:31;;;;;;;7.53;2.08;;;24.60;72.30;;;;;;5065111;28;20029;-72
2024/04/07 11:54:17;;;;;;;2.28;1.42;;;24.50;72.30;;;;;;5066033;28;20036;-71
2024/04/07 11:57:03;;;;;;;5.57;2.00;;;24.50;72.20;;;;;;5067477;28;20072;-71
2024/04/07 11:59:49;;;;;;;5.55;1.73;;;24.40;72.20;;;;;;5067690;28;20170;-72
2024/04/07 12:02:35;;;;;;;2.55;1.63;;;24.30;71.60;;;;;;5054511;28;20032;-72
2024/04/07 12:05:21;;;;;;;3.05;1.52;;;24.30;71.70;;;;;;5061145;28;20235;-72
2024/04/07 12:08:07;;;;;;;5.35;1.58;;;24.20;71.70;;;;;;5066759;28;20028;-72
2024/04/07 12:10:53;;;;;;;4.95;1.80;;;24.20;72.20;;;;;;5057574;28;20111;-72
2024/04/07 12:13:39;;;;;;;5.18;1.75;;;24.30;72.40;;;;;;5064876;28;20047;-72
2024/04/07 12:16:25;;;;;;;3.83;1.90;;;24.20;72.70;;;;;;5065741;28;20068;-72
2024/04/07 12:19:13;;;;;;;3.30;1.50;;;24.30;72.20;;;;;;5062865;28;20060;-68
2024/04/07 12:21:59;;;;;;;6.60;1.58;;;24.30;72.00;;;;;;5060429;28;20053;-67
2024/04/07 12:24:45;;;;;;;2.78;1.40;;;24.30;72.10;;;;;;5065761;28;20044;-68
2024/04/07 12:27:31;;;;;;;4.00;1.70;;;24.30;71.70;;;;;;5065638;28;20066;-68
2024/04/07 12:30:17;;;;;;;2.60;1.42;;;24.30;71.70;;;;;;5064361;28;20033;-67
2024/04/07 12:33:04;;;;;;;2.88;1.70;;;24.30;71.80;;;;;;5058730;28;20032;-67
2024/04/07 12:35:50;;;;;;;3.08;1.75;;;24.40;71.90;;;;;;5069963;28;20037;-69
2024/04/07 12:38:36;;;;;;;3.60;1.77;;;24.40;72.30;;;;;;5057078;28;20389;-70
2024/04/07 12:41:22;;;;;;;5.60;2.20;;;24.50;72.70;;;;;;5052993;28;20041;-70
2024/04/07 12:44:08;;;;;;;3.85;1.83;;;24.60;72.70;;;;;;5066147;28;20110;-70
2024/04/07 12:46:54;;;;;;;4.30;2.10;;;24.60;72.20;;;;;;5064436;28;20040;-70
2024/04/07 14:59:25;;;;;;;9.32;2.40;;;26.10;69.70;;;;;;5064975;28;20148;-76
2024/04/07 15:02:11;;;;;;;5.28;1.95;;;26.20;69.70;;;;;;4998517;28;20058;-76
2024/04/07 15:04:57;;;;;;;4.32;2.50;;;26.20;69.70;;;;;;5009091;28;20132;-75
2024/04/07 15:07:43;;;;;;;6.90;2.40;;;26.30;69.80;;;;;;5008475;28;20147;-76
2024/04/07 15:10:29;;;;;;;4.72;2.65;;;26.30;69.40;;;;;;5006172;28;20045;-75
2024/04/07 15:13:15;;;;;;;6.10;2.00;;;26.40;69.50;;;;;;4997723;28;20405;-76
2024/04/07 15:16:07;;;;;;;7.25;2.05;;;26.40;69.50;;;;;;5005946;28;21568;-73
2024/04/07 15:18:53;;;;;;;7.20;2.08;;;26.40;68.90;;;;;;5009721;28;20068;-75
2024/04/07 15:21:39;;;;;;;4.53;1.70;;;26.40;69.10;;;;;;5010009;28;20054;-75
2024/04/07 15:24:26;;;;;;;3.88;1.70;;;26.40;68.70;;;;;;5003826;28;20485;-75
2024/04/07 15:27:12;;;;;;;4.93;1.98;;;26.40;68.70;;;;;;4991487;28;20074;-75
2024/04/07 15:29:58;;;;;;;3.70;1.60;;;26.50;68.70;;;;;;5002486;28;20096;-75
2024/04/07 15:32:44;;;;;;;3.55;1.92;;;26.40;68.70;;;;;;5034248;28;20076;-75
2024/04/07 15:35:29;;;;;;;9.60;2.42;;;26.40;68.40;;;;;;5004344;28;20049;-75
2024/04/07 15:38:15;;;;;;;3.58;1.92;;;26.50;68.40;;;;;;5008670;28;20402;-74
2024/04/07 15:41:01;;;;;;;5.80;2.40;;;26.40;68.70;;;;;;5003347;28;20648;-74
2024/04/07 15:43:48;;;;;;;5.18;2.53;;;26.30;68.70;;;;;;5012957;28;20045;-75
2024/04/07 15:46:33;;;;;;;6.07;2.20;;;26.20;68.50;;;;;;5008597;28;20053;-75
2024/04/07 15:49:23;;;;;;;4.93;2.25;;;26.20;68.70;;;;;;5007779;28;20037;-75
2024/04/07 15:52:08;;;;;;;4.68;2.13;;;26.00;68.80;;;;;;4996438;28;20426;-75
2024/04/07 15:54:54;;;;;;;7.13;1.98;;;25.90;68.90;;;;;;5010555;28;20084;-75
2024/04/07 15:57:40;;;;;;;4.15;2.28;;;25.80;69.00;;;;;;4991550;28;20518;-75
2024/04/07 16:00:26;;;;;;;5.28;2.70;;;25.70;69.00;;;;;;5012501;28;20057;-75
2024/04/07 16:03:12;;;;;;;6.22;2.30;;;25.70;69.10;;;;;;5020204;28;20056;-75
2024/04/07 16:05:59;;;;;;;5.93;2.70;;;25.60;69.10;;;;;;5030018;28;20148;-76
2024/04/07 16:08:44;;;;;;;4.70;2.50;;;25.60;69.10;;;;;;5039046;28;20074;-75
2024/04/07 16:11:30;;;;;;;5.22;2.55;;;25.60;69.30;;;;;;5032687;28;20033;-78
2024/04/07 16:14:16;;;;;;;7.35;3.90;;;25.50;69.50;;;;;;5019555;28;20527;-73
2024/04/07 16:17:02;;;;;;;8.23;4.35;;;25.50;69.70;;;;;;5027698;28;20042;-77
2024/04/07 16:19:50;;;;;;;8.05;4.53;;;25.40;69.60;;;;;;5016380;28;20132;-76
2024/04/07 16:22:38;;;;;;;7.90;4.22;;;25.40;69.60;;;;;;5038113;28;20574;-77
2024/04/07 16:25:23;;;;;;;7.32;3.90;;;25.40;70.00;;;;;;5013330;28;20513;-76
2024/04/07 16:28:09;;;;;;;8.73;4.60;;;25.30;70.10;;;;;;5012332;28;20493;-71
2024/04/07 16:31:02;;;;;;;16.00;3.72;;;25.30;70.50;;;;;;5045717;28;20038;-73
2024/04/07 16:33:48;;;;;;;6.32;3.03;;;25.20;70.80;;;;;;5026982;28;20050;-73
2024/04/07 16:36:34;;;;;;;6.47;2.95;;;25.10;71.20;;;;;;5030230;28;20044;-75